LFPB

Paris-Le Bourget Airport

Paris, France
TAF LFPB 182300Z 1900/1924 13008KT CAVOK PROB30 TEMPO 1910/1912 -SN PROB40 TEMPO 1913/1918 3500 -RASN BKN005 PROB30 TEMPO 1913/1916 2500 -SN BECMG 1914/1916 BKN008 TEMPO 1919/1924 2000 -RADZ BR BKN005 PROB30 TEMPO 1921/1924 0800 BCFG BKN004
Issued Valid From Valid To
Jan-18 @ 23:00 UTC
(3 hours ago)
Jan-19 @ 00:00 UTC
(2 hours ago)
Jan-20 @ 00:00 UTC
(in 22 hours)
Jan-19 @ 00:00 to Jan-19 @ 14:00
TAF LFPB 182300Z 1900/1924 13008KT CAVOK
Wind Visibility Clouds Conditions
130° at 8 knots 10,000+ meters
  • No significant clouds
Temporary  (Probability 30%) Jan-19 @ 10:00 to Jan-19 @ 12:00
PROB30 TEMPO 1910/1912 -SN
Conditions
  • Light Snow
Temporary  (Probability 30%) Jan-19 @ 13:00 to Jan-19 @ 16:00
PROB30 TEMPO 1913/1916 2500 -SN
Visibility Conditions
2,494 meters
  • Light Snow
Temporary  (Probability 40%) Jan-19 @ 13:00 to Jan-19 @ 18:00
PROB40 TEMPO 1913/1918 3500 -RASN BKN005
Visibility Clouds Conditions
3,492 meters
  • Broken at 500' AGL
  • Light Rain
  • Light Snow
Becoming Jan-19 @ 14:00 to Jan-20 @ 00:00
BECMG 1914/1916 BKN008
Wind Visibility Clouds Conditions
130° at 8 knots 10,000+ meters
  • Broken at 800' AGL
Temporary Jan-19 @ 19:00 to Jan-20 @ 00:00
TEMPO 1919/1924 2000 -RADZ BR BKN005
Visibility Clouds Conditions
1,996 meters
  • Broken at 500' AGL
  • Light Rain
  • Light Drizzle
  • Mist
Temporary  (Probability 30%) Jan-19 @ 21:00 to Jan-20 @ 00:00
PROB30 TEMPO 1921/1924 0800 BCFG BKN004
Visibility Clouds Conditions
805 meters
  • Broken at 400' AGL
  • Patches of
  • Fog
TAF LFPB 182300Z 1900/1924 13008KT CAVOK PROB30 TEMPO 1910/1912 -SN PROB40 TEMPO 1913/1918 3500 -RASN BKN005 PROB30 TEMPO 1913/1916 2500 -SN BECMG 1914/1916 BKN008 TEMPO 1919/1924 2000 -RADZ BR BKN005 PROB30 TEMPO 1921/1924 0800 BCFG BKN004
Issued Jan-18 @ 23:00 UTC
(3 hours ago)
Valid From Jan-19 @ 00:00 UTC
(2 hours ago)
Valid To Jan-20 @ 00:00 UTC
(in 22 hours)
Jan-19 @ 00:00 - Jan-19 @ 14:00
Wind Visibility
130° at 8 knots 10,000+ meters
Clouds
  • No significant clouds
Conditions
Probability 30% Temporary Jan-19 @ 10:00 - Jan-19 @ 12:00
Conditions
  • Light Snow
Probability 30% Temporary Jan-19 @ 13:00 - Jan-19 @ 16:00
Conditions
  • Light Snow
Probability 40% Temporary Jan-19 @ 13:00 - Jan-19 @ 18:00
Clouds
  • Broken at 500' AGL
Conditions
  • Light Rain
  • Light Snow
Becoming Jan-19 @ 14:00 - Jan-20 @ 00:00
Wind Visibility
130° at 8 knots 10,000+ meters
Clouds
  • Broken at 800' AGL
Conditions
Temporary Jan-19 @ 19:00 - Jan-20 @ 00:00
Clouds
  • Broken at 500' AGL
Conditions
  • Light Rain
  • Light Drizzle
  • Mist
Probability 30% Temporary Jan-19 @ 21:00 - Jan-20 @ 00:00
Clouds
  • Broken at 400' AGL
Conditions
  • Patches of
  • Fog